Time;durP1;ratioP1;P1;durP2;ratioP2;P2;SDS_P1;SDS_P2;PMS_P1;PMS_P2;Temp;Humidity;BMP_temperature;BMP_pressure;BME280_temperature;BME280_humidity;BME280_pressure;Samples;Min_cycle;Max_cycle;Signal;HPM_P1;HPM_P2
2022/11/03 00:01:45;;;;;;;24.08;9.77;;;21.00;77.60;;;;;;5082750;28;20028;-75
2022/11/03 00:04:13;;;;;;;13.32;6.50;;;21.00;77.00;;;;;;5078567;28;20036;-74
2022/11/03 00:06:44;;;;;;;13.02;4.53;;;20.90;76.40;;;;;;5082744;28;20028;-75
2022/11/03 00:09:13;;;;;;;15.98;6.88;;;20.90;76.40;;;;;;5086331;28;20127;-75
2022/11/03 00:11:42;;;;;;;19.85;7.07;;;20.90;76.20;;;;;;5081681;28;20019;-75
2022/11/03 00:14:13;;;;;;;18.25;6.18;;;20.90;76.40;;;;;;5082976;28;20533;-75
2022/11/03 00:16:43;;;;;;;18.38;4.60;;;20.90;77.20;;;;;;5083937;28;20020;-74
2022/11/03 00:23:21;;;;;;;16.63;5.03;;;20.90;77.50;;;;;;5042718;28;20037;-76
2022/11/03 00:26:13;;;;;;;17.02;4.47;;;20.90;77.80;;;;;;5076390;28;20166;-76
2022/11/03 00:29:08;;;;;;;11.77;3.78;;;20.90;77.90;;;;;;4986817;28;20030;-76
2022/11/03 00:31:36;;;;;;;20.25;5.10;;;20.90;77.90;;;;;;4987735;28;20125;-75
2022/11/03 00:34:14;;;;;;;17.23;3.88;;;20.90;77.90;;;;;;5033955;28;20089;-75
2022/11/03 00:37:27;;;;;;;11.05;3.90;;;20.90;78.00;;;;;;5046808;28;20033;-74
2022/11/03 00:43:31;;;;;;;16.77;5.65;;;20.90;77.90;;;;;;5012274;28;20103;-75
2022/11/03 00:49:45;;;;;;;15.60;4.78;;;20.90;78.10;;;;;;5043147;28;20360;-75
2022/11/03 00:52:23;;;;;;;12.23;5.80;;;20.90;78.00;;;;;;4975219;28;20038;-75
2022/11/03 00:54:52;;;;;;;12.75;5.45;;;20.90;78.00;;;;;;4977140;28;20046;-74
2022/11/03 00:57:51;;;;;;;12.98;5.40;;;20.90;78.00;;;;;;4986800;28;20044;-75
2022/11/03 01:07:07;;;;;;;23.92;8.98;;;20.80;77.80;;;;;;4967152;28;20137;-76
2022/11/03 01:09:39;;;;;;;12.88;6.10;;;20.80;77.80;;;;;;4968121;28;20043;-75
2022/11/03 01:12:13;;;;;;;13.95;5.68;;;20.80;78.50;;;;;;4953868;28;20048;-75
2022/11/03 01:14:46;;;;;;;11.13;4.25;;;20.80;77.70;;;;;;5049267;28;20064;-75
2022/11/03 01:17:35;;;;;;;20.70;4.75;;;20.80;77.70;;;;;;5079959;28;20054;-74
2022/11/03 01:20:14;;;;;;;11.77;3.88;;;20.80;78.00;;;;;;5084948;28;20116;-75
2022/11/03 01:23:16;;;;;;;16.58;5.55;;;20.80;77.90;;;;;;5081380;28;20024;-74
2022/11/03 01:26:18;;;;;;;17.45;4.65;;;20.80;77.90;;;;;;5053684;28;20075;-75
2022/11/03 01:28:48;;;;;;;17.85;4.35;;;20.80;77.90;;;;;;5061426;28;20047;-75
2022/11/03 01:31:30;;;;;;;10.02;3.60;;;20.70;77.80;;;;;;5056117;28;20614;-73
2022/11/03 01:33:57;;;;;;;12.18;5.05;;;20.80;77.70;;;;;;5046008;28;20124;-74
2022/11/03 01:36:49;;;;;;;11.50;4.63;;;20.70;77.70;;;;;;5060893;28;20025;-74
2022/11/03 01:39:38;;;;;;;7.72;4.00;;;20.70;77.70;;;;;;5051194;28;20037;-75
2022/11/03 01:42:15;;;;;;;12.15;4.88;;;20.70;77.50;;;;;;5058941;28;20152;-73
2022/11/03 01:44:50;;;;;;;24.00;5.07;;;20.70;77.60;;;;;;5053700;28;20033;-74
2022/11/03 01:47:23;;;;;;;15.45;5.38;;;20.70;77.70;;;;;;5058530;28;20754;-73
2022/11/03 01:49:59;;;;;;;17.27;5.03;;;20.70;77.70;;;;;;5056025;28;20096;-72
2022/11/03 01:52:35;;;;;;;16.67;5.40;;;20.70;77.70;;;;;;5060234;28;20032;-73
2022/11/03 01:55:14;;;;;;;18.50;4.68;;;20.60;77.60;;;;;;5042329;28;20404;-72
2022/11/03 01:58:20;;;;;;;11.68;3.50;;;20.60;77.60;;;;;;5074091;28;20043;-73
2022/11/03 02:00:48;;;;;;;;;;;20.60;77.60;;;;;;5082867;28;20142;-72
2022/11/03 02:03:16;;;;;;;19.38;4.88;;;20.60;77.50;;;;;;5084615;28;19982;-73
2022/11/03 02:05:50;;;;;;;15.30;4.63;;;20.60;77.40;;;;;;5076649;28;20032;-73
2022/11/03 02:08:39;;;;;;;14.13;5.07;;;20.60;77.50;;;;;;5079085;28;20039;-75
2022/11/03 02:13:51;;;;;;;;;;;20.60;77.80;;;;;;5077369;28;20097;-75
2022/11/03 02:16:19;;;;;;;17.35;4.28;;;20.60;78.00;;;;;;5077802;28;19912;-75
2022/11/03 02:18:46;;;;;;;22.20;4.18;;;20.60;78.10;;;;;;5078322;28;20415;-75
2022/11/03 02:21:27;;;;;;;11.32;4.30;;;20.60;78.00;;;;;;5077534;28;20020;-75
2022/11/03 02:24:12;;;;;;;11.98;4.55;;;20.60;77.90;;;;;;5081654;28;20051;-75
2022/11/03 02:26:40;;;;;;;9.07;4.03;;;20.60;78.00;;;;;;5078664;28;20021;-74
2022/11/03 02:29:06;;;;;;;15.27;5.00;;;20.60;78.00;;;;;;5095898;28;20937;-74
2022/11/03 02:31:48;;;;;;;12.63;4.22;;;20.60;78.00;;;;;;5080896;28;20027;-75
2022/11/03 02:34:31;;;;;;;12.85;4.50;;;20.60;78.00;;;;;;5077843;28;20102;-75
2022/11/03 02:37:26;;;;;;;20.00;6.35;;;20.60;77.90;;;;;;5079854;28;20024;-74
2022/11/03 02:40:15;;;;;;;23.98;6.15;;;20.60;77.90;;;;;;5073434;28;20044;-74
2022/11/03 02:42:46;;;;;;;13.88;3.35;;;20.60;77.80;;;;;;5074673;28;20020;-76
2022/11/03 02:45:16;;;;;;;16.40;4.75;;;20.60;77.90;;;;;;5080804;28;20032;-74
2022/11/03 02:47:44;;;;;;;9.95;3.78;;;20.50;77.90;;;;;;5080631;28;20028;-75
2022/11/03 02:50:11;;;;;;;15.25;5.63;;;20.50;77.90;;;;;;5078193;28;20025;-73
2022/11/03 02:52:42;;;;;;;13.95;6.75;;;20.50;77.90;;;;;;5075365;28;20024;-74
2022/11/03 02:55:20;;;;;;;15.85;4.80;;;20.50;78.00;;;;;;5085109;28;20028;-76
2022/11/03 02:58:36;;;;;;;14.18;5.25;;;20.50;77.80;;;;;;5073686;28;20111;-75
2022/11/03 03:01:25;;;;;;;16.40;5.53;;;20.50;77.70;;;;;;5078963;28;20043;-75
2022/11/03 03:04:37;;;;;;;12.80;4.70;;;20.50;78.00;;;;;;5082276;28;20506;-74
2022/11/03 03:07:08;;;;;;;24.23;4.25;;;20.50;78.50;;;;;;5078031;28;20146;-74
2022/11/03 03:09:50;;;;;;;24.00;5.90;;;20.50;78.60;;;;;;5075762;28;20028;-74
2022/11/03 03:12:17;;;;;;;19.23;5.53;;;20.50;78.60;;;;;;5077780;28;20051;-74
2022/11/03 03:14:47;;;;;;;18.10;5.18;;;20.50;78.10;;;;;;5077779;28;20017;-74
2022/11/03 03:17:23;;;;;;;12.68;5.15;;;20.50;77.60;;;;;;5082181;28;20050;-74
2022/11/03 03:19:55;;;;;;;17.65;5.07;;;20.40;77.20;;;;;;5078556;28;20020;-74
2022/11/03 03:22:42;;;;;;;15.60;4.70;;;20.40;77.10;;;;;;5078186;28;20047;-74
2022/11/03 03:25:27;;;;;;;14.55;5.22;;;20.40;77.00;;;;;;5079696;28;20486;-74
2022/11/03 03:28:00;;;;;;;14.85;5.78;;;20.30;76.90;;;;;;5079919;28;20492;-74
2022/11/03 03:30:30;;;;;;;19.88;6.65;;;20.30;77.00;;;;;;5078684;28;20120;-73
2022/11/03 03:32:58;;;;;;;10.18;5.03;;;20.30;77.00;;;;;;5075844;28;20166;-75
2022/11/03 03:35:32;;;;;;;19.05;5.15;;;20.30;77.10;;;;;;5073513;28;20056;-72
2022/11/03 03:38:04;;;;;;;20.10;4.72;;;20.30;77.20;;;;;;5086054;28;20050;-73
2022/11/03 03:41:11;;;;;;;10.73;4.63;;;20.30;77.90;;;;;;5097295;28;20020;-74
2022/11/03 03:44:20;;;;;;;14.90;5.78;;;20.30;77.20;;;;;;5076365;28;20056;-73
2022/11/03 03:47:35;;;;;;;14.68;5.38;;;20.30;77.20;;;;;;5074725;28;20655;-74
2022/11/03 03:50:02;;;;;;;15.98;5.63;;;20.30;77.20;;;;;;5083476;28;20028;-78
2022/11/03 03:52:29;;;;;;;10.00;4.45;;;20.30;77.10;;;;;;5084704;28;20024;-76
2022/11/03 03:54:56;;;;;;;12.10;4.57;;;20.30;77.10;;;;;;5077042;28;20387;-78
2022/11/03 03:57:24;;;;;;;18.02;5.85;;;20.20;77.20;;;;;;5082435;28;20016;-73
2022/11/03 03:59:54;;;;;;;17.77;6.80;;;20.20;77.30;;;;;;5084557;28;20145;-73
2022/11/03 04:02:20;;;;;;;16.33;5.55;;;20.20;77.40;;;;;;5077535;28;20021;-74
2022/11/03 04:04:47;;;;;;;18.42;9.70;;;20.20;78.10;;;;;;5078567;28;20028;-75
2022/11/03 04:22:15;;;;;;;20.58;8.15;;;20.30;78.00;;;;;;5073320;28;20024;-74
2022/11/03 04:24:23;;;;;;;22.83;11.27;;;20.20;80.20;;;;;;5073704;28;20119;-74
2022/11/03 04:26:56;;;;;;;20.02;11.32;;;20.20;80.20;;;;;;5082169;28;20039;-76
2022/11/03 04:29:23;;;;;;;19.73;9.27;;;20.30;80.00;;;;;;5076963;28;20020;-72
2022/11/03 04:31:50;;;;;;;22.40;7.78;;;20.30;79.80;;;;;;5082498;28;20062;-75
2022/11/03 04:34:35;;;;;;;16.88;6.78;;;20.30;79.60;;;;;;5084983;28;20539;-72
2022/11/03 04:37:04;;;;;;;;;;;20.30;79.30;;;;;;5082536;28;20020;-71
2022/11/03 04:39:31;;;;;;;18.77;4.95;;;20.30;79.10;;;;;;5080031;28;19908;-71
2022/11/03 04:42:17;;;;;;;18.80;5.63;;;20.30;78.90;;;;;;5079273;28;20043;-74
2022/11/03 04:45:23;;;;;;;18.63;5.53;;;20.30;78.60;;;;;;5075397;28;20032;-72
2022/11/03 04:48:00;;;;;;;13.77;5.95;;;20.30;78.50;;;;;;5081139;28;20055;-74
2022/11/03 04:51:06;;;;;;;14.23;5.10;;;20.30;78.30;;;;;;5074926;28;20112;-73
2022/11/03 04:54:15;;;;;;;13.75;6.97;;;20.30;78.30;;;;;;5082094;27;20356;-74
2022/11/03 05:01:05;;;;;;;17.80;7.00;;;20.30;78.20;;;;;;5080663;28;20046;-73
2022/11/03 05:04:11;;;;;;;16.23;7.20;;;20.30;78.30;;;;;;5081300;28;20441;-74
2022/11/03 05:07:23;;;;;;;24.67;6.03;;;20.30;78.40;;;;;;5079210;28;20032;-74
2022/11/03 05:10:29;;;;;;;14.88;5.25;;;20.30;78.50;;;;;;5077028;28;20094;-73
2022/11/03 05:13:00;;;;;;;18.67;6.15;;;20.30;79.30;;;;;;5084088;28;20114;-75
2022/11/03 05:15:42;;;;;;;14.02;5.10;;;20.30;79.80;;;;;;5079256;28;20058;-74
2022/11/03 05:18:35;;;;;;;19.33;6.78;;;20.30;80.20;;;;;;5085153;28;20124;-74
2022/11/03 05:21:28;;;;;;;21.80;6.13;;;20.40;81.10;;;;;;5081443;28;20103;-75
2022/11/03 05:24:34;;;;;;;16.48;5.40;;;20.40;81.20;;;;;;5071967;28;20024;-74
2022/11/03 05:27:43;;;;;;;12.35;5.22;;;20.40;81.00;;;;;;5078581;28;20065;-74
2022/11/03 05:30:52;;;;;;;15.65;4.85;;;20.50;80.50;;;;;;5078463;28;20017;-73
2022/11/03 05:34:01;;;;;;;19.17;6.63;;;20.50;80.10;;;;;;5078768;28;20024;-73
2022/11/03 05:37:07;;;;;;;22.65;6.45;;;20.50;79.60;;;;;;5090908;28;20041;-74
2022/11/03 05:40:11;;;;;;;20.48;6.32;;;20.50;79.40;;;;;;5080489;28;20051;-74
2022/11/03 05:43:20;;;;;;;18.58;5.43;;;20.50;79.10;;;;;;5084609;28;20364;-74
2022/11/03 05:46:26;;;;;;;22.00;5.68;;;20.50;78.90;;;;;;5080381;28;20071;-74
2022/11/03 05:49:32;;;;;;;21.35;6.05;;;20.50;78.70;;;;;;5079672;28;20035;-74
2022/11/03 05:52:41;;;;;;;21.42;7.80;;;20.50;78.50;;;;;;5077140;28;20028;-74
2022/11/03 05:55:53;;;;;;;21.85;5.72;;;20.60;78.40;;;;;;5087282;28;20038;-73
2022/11/03 05:59:12;;;;;;;11.98;4.85;;;20.60;78.20;;;;;;5074103;28;20067;-74
2022/11/03 06:02:18;;;;;;;17.02;5.43;;;20.60;77.90;;;;;;5080762;28;20027;-73
2022/11/03 06:05:33;;;;;;;14.13;4.68;;;20.70;77.80;;;;;;5079989;28;20044;-74
2022/11/03 06:08:42;;;;;;;17.85;4.45;;;20.70;77.60;;;;;;5063465;28;20028;-74
2022/11/03 06:11:48;;;;;;;20.27;5.53;;;20.70;77.50;;;;;;5077770;28;20421;-74
2022/11/03 06:14:54;;;;;;;16.67;6.20;;;20.80;77.40;;;;;;5083387;28;20044;-75
2022/11/03 06:18:04;;;;;;;15.63;4.75;;;20.80;77.20;;;;;;5078275;28;20111;-74
2022/11/03 06:21:13;;;;;;;15.68;3.85;;;20.80;77.10;;;;;;5080891;28;20039;-74
2022/11/03 06:24:19;;;;;;;11.25;4.28;;;20.90;77.00;;;;;;5075158;28;20499;-74
2022/11/03 06:27:25;;;;;;;15.90;5.80;;;20.90;76.90;;;;;;5078743;28;20038;-74
2022/11/03 06:30:44;;;;;;;17.58;5.45;;;20.90;76.70;;;;;;5080252;28;20031;-74
2022/11/03 06:33:50;;;;;;;17.83;4.55;;;20.90;76.60;;;;;;5053428;28;20386;-73
2022/11/03 06:36:56;;;;;;;12.77;4.78;;;21.00;76.60;;;;;;5077730;28;20070;-74
2022/11/03 06:39:45;;;;;;;;;;;21.00;76.50;;;;;;5077346;28;20025;-74
2022/11/03 06:42:13;;;;;;;16.35;6.40;;;21.10;76.50;;;;;;5080254;28;20453;-73
2022/11/03 06:45:20;;;;;;;13.52;4.78;;;21.10;76.30;;;;;;5078801;28;20127;-74
2022/11/03 06:48:26;;;;;;;17.70;4.97;;;21.20;76.20;;;;;;5079546;28;20536;-74
2022/11/03 06:51:32;;;;;;;14.52;5.38;;;21.20;76.20;;;;;;5081538;28;20115;-74
2022/11/03 06:54:39;;;;;;;22.67;6.13;;;21.20;76.00;;;;;;5099176;28;20063;-74
2022/11/03 06:57:45;;;;;;;24.33;6.78;;;21.30;76.10;;;;;;5083553;28;20062;-73
2022/11/03 07:01:06;;;;;;;27.08;7.40;;;21.30;75.90;;;;;;5081821;28;20028;-74
2022/11/03 07:04:12;;;;;;;13.80;4.82;;;21.30;75.80;;;;;;5077952;28;20024;-74
2022/11/03 07:07:18;;;;;;;13.95;3.97;;;21.40;75.70;;;;;;5076460;28;20090;-74
2022/11/03 07:10:24;;;;;;;16.90;5.18;;;21.40;75.60;;;;;;5081394;28;20016;-73
2022/11/03 07:13:31;;;;;;;14.65;5.72;;;21.50;75.50;;;;;;5081462;28;20218;-74
2022/11/03 07:16:46;;;;;;;20.38;5.28;;;21.50;75.40;;;;;;5082234;28;20430;-73
2022/11/03 07:20:01;;;;;;;17.17;6.80;;;21.60;75.30;;;;;;5077152;28;20043;-75
2022/11/03 07:23:07;;;;;;;18.90;5.22;;;21.60;75.30;;;;;;5080145;28;20115;-73
2022/11/03 07:26:13;;;;;;;18.63;5.28;;;21.70;75.30;;;;;;5080784;28;20548;-74
2022/11/03 07:29:20;;;;;;;10.05;4.90;;;21.70;75.30;;;;;;5086401;28;20513;-74
2022/11/03 07:32:35;;;;;;;18.08;5.00;;;21.80;75.20;;;;;;5082744;28;20024;-74
2022/11/03 07:35:17;;;;;;;17.50;5.38;;;21.80;75.10;;;;;;5082502;28;20042;-74
2022/11/03 07:38:23;;;;;;;14.15;5.38;;;21.90;75.10;;;;;;5087226;28;20474;-75
2022/11/03 07:41:29;;;;;;;14.23;4.47;;;21.90;75.10;;;;;;5080775;28;20405;-74
2022/11/03 07:44:35;;;;;;;12.90;4.40;;;21.90;75.00;;;;;;5082809;28;20028;-74
2022/11/03 07:47:41;;;;;;;18.75;4.43;;;22.00;74.90;;;;;;5083864;28;20119;-74
2022/11/03 07:50:53;;;;;;;16.67;5.40;;;22.00;74.80;;;;;;5081637;28;20089;-73
2022/11/03 07:54:15;;;;;;;14.25;4.85;;;22.10;74.60;;;;;;5086386;28;20032;-74
2022/11/03 07:56:42;;;;;;;19.75;5.07;;;22.10;74.50;;;;;;5075392;28;20060;-73
2022/11/03 07:59:11;;;;;;;20.65;6.22;;;22.20;74.40;;;;;;5087180;28;20101;-73
2022/11/03 08:02:15;;;;;;;25.85;6.65;;;22.20;74.60;;;;;;5080938;28;20062;-74
2022/11/03 10:22:28;;;;;;;16.30;4.50;;;23.50;68.10;;;;;;5081696;27;20480;-71
2022/11/03 10:25:37;;;;;;;14.70;5.07;;;23.80;68.10;;;;;;5083371;28;20017;-71
2022/11/03 10:28:25;;;;;;;10.88;4.07;;;23.90;67.90;;;;;;5081229;28;20623;-72
2022/11/03 10:30:59;;;;;;;12.40;4.03;;;23.90;67.40;;;;;;5084567;28;20477;-72
2022/11/03 10:33:31;;;;;;;14.57;4.55;;;24.00;67.20;;;;;;5079899;28;20051;-71
2022/11/03 10:35:59;;;;;;;18.52;4.85;;;24.10;67.10;;;;;;5075961;28;20034;-72
2022/11/03 10:38:26;;;;;;;17.95;5.30;;;24.10;66.90;;;;;;5083721;28;20051;-72
2022/11/03 10:40:53;;;;;;;15.88;4.88;;;24.20;66.90;;;;;;5079172;28;20431;-72
2022/11/03 10:43:20;;;;;;;19.92;4.85;;;24.20;66.80;;;;;;5080471;28;20021;-72
2022/11/03 10:45:48;;;;;;;14.27;4.78;;;24.20;66.40;;;;;;5077055;28;20016;-72
2022/11/03 10:48:15;;;;;;;16.70;4.60;;;24.20;66.70;;;;;;5082216;28;20078;-71
2022/11/03 10:50:42;;;;;;;22.70;5.05;;;24.20;66.20;;;;;;5085314;28;20040;-73
2022/11/03 10:53:19;;;;;;;14.73;5.03;;;24.30;66.20;;;;;;5082282;28;20035;-72
2022/11/03 10:55:46;;;;;;;26.02;5.57;;;24.30;66.00;;;;;;5078523;28;20119;-73
2022/11/03 10:58:13;;;;;;;19.90;4.80;;;24.40;66.20;;;;;;5079633;28;20111;-73
2022/11/03 11:00:42;;;;;;;11.63;5.00;;;24.40;66.50;;;;;;5081450;28;20087;-72
2022/11/03 11:03:12;;;;;;;11.30;3.80;;;24.40;66.70;;;;;;5081498;28;20039;-72
2022/11/03 11:05:45;;;;;;;10.65;3.75;;;24.50;67.00;;;;;;5097311;28;20035;-72
2022/11/03 11:08:27;;;;;;;16.33;5.03;;;24.50;66.90;;;;;;5081328;28;20055;-73
2022/11/03 11:10:54;;;;;;;18.98;5.72;;;24.60;66.90;;;;;;5082723;28;20032;-72
2022/11/03 11:13:20;;;;;;;21.95;4.88;;;24.60;66.90;;;;;;5084070;28;20008;-72
2022/11/03 11:15:59;;;;;;;12.63;5.93;;;24.70;66.80;;;;;;5080217;28;20024;-72
2022/11/03 11:18:31;;;;;;;16.02;3.75;;;24.70;66.80;;;;;;5081862;28;20016;-72
2022/11/03 11:21:23;;;;;;;15.18;4.57;;;24.70;66.80;;;;;;5076868;28;20057;-73
2022/11/03 11:23:51;;;;;;;35.90;5.80;;;24.70;66.40;;;;;;5027039;28;20036;-72
2022/11/03 11:26:31;;;;;;;17.85;6.63;;;24.70;66.00;;;;;;5066050;28;20035;-72
2022/11/03 11:29:12;;;;;;;17.13;4.40;;;24.80;66.10;;;;;;5064909;28;20021;-72
2022/11/03 11:31:45;;;;;;;15.68;4.00;;;24.80;66.00;;;;;;5068680;28;20115;-71
2022/11/03 11:36:43;;;;;;;13.18;4.28;;;24.90;65.40;;;;;;5067613;28;20115;-72
2022/11/03 11:39:11;;;;;;;12.07;4.18;;;24.90;65.10;;;;;;5067085;28;20104;-73
2022/11/03 11:42:09;;;;;;;17.10;4.40;;;25.00;65.00;;;;;;5065652;28;20028;-72
2022/11/03 11:45:01;;;;;;;26.35;7.00;;;25.00;64.90;;;;;;5070326;28;20020;-72
2022/11/03 11:47:28;;;;;;;14.60;4.53;;;25.00;64.90;;;;;;5068492;28;20137;-72
2022/11/03 11:50:03;;;;;;;11.85;5.13;;;25.10;65.20;;;;;;5069000;28;20961;-73
2022/11/03 11:52:30;;;;;;;12.20;4.22;;;25.10;65.40;;;;;;5067211;28;20025;-73
2022/11/03 11:54:57;;;;;;;18.95;5.18;;;25.20;65.50;;;;;;5069741;28;20031;-73
2022/11/03 11:57:24;;;;;;;14.90;4.15;;;25.20;65.60;;;;;;5066366;28;20022;-72
2022/11/03 11:59:51;;;;;;;17.63;5.45;;;25.20;65.70;;;;;;5068025;28;20074;-73
2022/11/03 12:02:30;;;;;;;14.75;4.47;;;25.20;65.50;;;;;;5064116;28;20103;-72
2022/11/03 12:05:01;;;;;;;20.27;5.88;;;25.20;65.60;;;;;;5065655;28;20062;-72
2022/11/03 12:07:32;;;;;;;17.60;5.03;;;25.20;65.70;;;;;;5065307;28;20032;-73
2022/11/03 12:10:25;;;;;;;17.85;4.20;;;25.20;65.80;;;;;;5066226;28;20430;-73
2022/11/03 12:12:51;;;;;;;12.10;4.25;;;25.30;65.70;;;;;;5067191;28;20115;-73
2022/11/03 12:15:52;;;;;;;12.23;3.58;;;25.30;65.50;;;;;;5065230;28;20051;-74
2022/11/03 12:18:32;;;;;;;11.73;4.25;;;25.30;64.90;;;;;;5063098;28;20589;-73
2022/11/03 12:21:00;;;;;;;13.60;4.50;;;25.30;64.80;;;;;;5066088;28;20602;-73
2022/11/03 12:23:41;;;;;;;11.77;3.83;;;25.40;64.80;;;;;;5065595;28;20037;-73
2022/11/03 12:26:27;;;;;;;23.75;3.58;;;25.30;64.50;;;;;;5067538;28;20032;-72
2022/11/03 12:28:53;;;;;;;15.68;3.83;;;25.40;64.50;;;;;;5063260;28;20101;-73
2022/11/03 12:31:20;;;;;;;15.38;3.90;;;25.40;64.30;;;;;;5063571;28;20686;-73
2022/11/03 12:33:47;;;;;;;18.33;4.68;;;25.50;64.10;;;;;;5068137;28;20450;-73
2022/11/03 12:36:13;;;;;;;15.77;3.78;;;25.50;63.90;;;;;;5061962;28;20020;-73
2022/11/03 12:38:40;;;;;;;13.13;4.25;;;25.50;64.00;;;;;;5069413;28;20383;-73
2022/11/03 12:41:23;;;;;;;14.27;4.40;;;25.50;63.90;;;;;;5064486;28;20111;-72
2022/11/03 12:43:56;;;;;;;13.32;6.00;;;25.50;64.00;;;;;;5065080;28;20623;-73
2022/11/03 12:46:26;;;;;;;10.32;3.47;;;25.50;64.00;;;;;;5066026;28;20021;-73
2022/11/03 12:48:52;;;;;;;19.30;4.95;;;25.50;64.40;;;;;;5064119;28;20020;-73
2022/11/03 12:51:21;;;;;;;17.58;6.97;;;25.60;64.60;;;;;;5067947;28;20044;-73
2022/11/03 12:53:47;;;;;;;22.35;4.18;;;25.60;64.70;;;;;;5065368;28;20028;-73
2022/11/03 12:56:16;;;;;;;14.70;5.70;;;25.60;64.80;;;;;;5066273;28;20127;-72
2022/11/03 12:58:42;;;;;;;12.15;3.75;;;25.60;64.90;;;;;;5065419;28;20261;-72
2022/11/03 13:01:09;;;;;;;16.67;6.03;;;25.60;64.80;;;;;;5066902;28;20032;-73
2022/11/03 13:03:45;;;;;;;13.90;5.45;;;25.70;64.60;;;;;;5065204;28;20037;-73
2022/11/03 13:06:13;;;;;;;15.73;3.88;;;25.70;64.30;;;;;;5068528;28;20045;-72
2022/11/03 13:08:40;;;;;;;12.30;4.25;;;25.70;63.80;;;;;;5064318;28;20480;-73
2022/11/03 13:14:04;;;;;;;12.35;3.53;;;25.80;63.50;;;;;;5066096;28;20044;-73
2022/11/03 13:16:31;;;;;;;13.20;4.85;;;25.80;63.50;;;;;;5062637;28;20023;-73
2022/11/03 13:18:57;;;;;;;10.88;3.90;;;25.80;63.30;;;;;;5067547;28;20021;-72
2022/11/03 13:21:24;;;;;;;14.20;4.45;;;25.80;63.20;;;;;;5064515;28;20140;-73
2022/11/03 13:23:51;;;;;;;12.98;3.92;;;25.80;63.20;;;;;;5065886;28;20104;-73
2022/11/03 13:26:18;;;;;;;11.07;3.50;;;25.90;63.30;;;;;;5065176;28;20035;-73
2022/11/03 13:28:45;;;;;;;12.05;4.28;;;25.90;63.20;;;;;;5066021;28;20468;-72
2022/11/03 13:31:11;;;;;;;14.73;4.60;;;25.90;62.90;;;;;;5061766;28;20067;-73
2022/11/03 13:33:38;;;;;;;11.20;3.72;;;25.90;62.80;;;;;;5061507;28;20037;-72
2022/11/03 13:36:05;;;;;;;10.38;3.67;;;25.90;62.70;;;;;;5064670;28;20060;-73
2022/11/03 13:38:31;;;;;;;9.15;4.90;;;25.90;62.80;;;;;;5062226;28;20056;-73
2022/11/03 13:40:58;;;;;;;11.32;3.55;;;25.90;62.80;;;;;;5064778;28;20040;-73
2022/11/03 13:43:36;;;;;;;11.55;2.92;;;25.90;62.90;;;;;;5060557;28;20013;-73
2022/11/03 13:46:03;;;;;;;10.93;4.20;;;25.90;62.90;;;;;;5063534;28;20036;-73
2022/11/03 13:48:30;;;;;;;9.30;3.50;;;25.90;63.10;;;;;;5063488;28;20526;-72
2022/11/03 13:50:58;;;;;;;6.50;2.78;;;25.90;63.20;;;;;;5064094;28;20068;-73
2022/11/03 13:53:25;;;;;;;8.18;3.90;;;25.90;63.30;;;;;;5066042;28;20045;-73
2022/11/03 13:55:52;;;;;;;10.75;4.32;;;26.00;63.60;;;;;;5068226;28;20013;-73
2022/11/03 13:58:18;;;;;;;10.13;4.13;;;26.00;63.60;;;;;;5061742;28;20021;-73
2022/11/03 14:00:45;;;;;;;8.77;3.40;;;26.00;63.70;;;;;;5061867;28;20036;-73
2022/11/03 14:03:11;;;;;;;15.23;3.25;;;26.10;63.80;;;;;;5067177;28;20024;-73
2022/11/03 14:05:41;;;;;;;10.40;3.75;;;26.10;64.00;;;;;;5061184;28;20759;-73
2022/11/03 14:08:27;;;;;;;6.68;2.92;;;26.10;64.00;;;;;;5063564;28;20032;-73
2022/11/03 14:10:54;;;;;;;14.00;5.15;;;26.10;64.00;;;;;;5064464;28;20040;-70
2022/11/03 14:13:20;;;;;;;20.13;3.45;;;26.20;63.90;;;;;;5065196;28;20013;-71
2022/11/03 14:15:50;;;;;;;16.40;3.92;;;26.20;64.40;;;;;;5059643;28;20032;-72
2022/11/03 14:18:17;;;;;;;14.80;3.92;;;26.30;65.00;;;;;;5057967;28;20033;-71
2022/11/03 14:20:44;;;;;;;14.77;3.38;;;26.30;66.00;;;;;;5061296;28;20043;-74
2022/11/03 14:23:25;;;;;;;13.18;4.40;;;26.30;66.20;;;;;;5060341;28;20676;-72
2022/11/03 14:25:52;;;;;;;8.57;3.60;;;26.30;65.40;;;;;;5068139;28;20055;-73
2022/11/03 14:28:18;;;;;;;16.23;9.68;;;26.40;65.10;;;;;;5065256;28;20150;-71
2022/11/03 14:30:45;;;;;;;21.60;8.85;;;26.30;64.90;;;;;;5060814;28;20037;-72
2022/11/03 14:33:11;;;;;;;13.82;4.38;;;26.30;65.00;;;;;;5068832;28;20364;-71
2022/11/03 14:35:38;;;;;;;12.23;4.90;;;26.40;65.20;;;;;;5069467;28;20059;-69
2022/11/03 14:38:04;;;;;;;12.63;3.97;;;26.40;65.00;;;;;;5065328;28;20036;-70
2022/11/03 14:43:16;;;;;;;18.77;3.92;;;26.40;64.80;;;;;;5058766;28;20035;-71
2022/11/03 14:45:42;;;;;;;5.90;2.67;;;26.50;65.00;;;;;;5065123;28;20065;-74
2022/11/03 14:48:09;;;;;;;11.65;3.10;;;26.40;65.60;;;;;;5059157;28;20383;-72
2022/11/03 14:50:36;;;;;;;18.75;4.35;;;26.40;66.00;;;;;;5060661;28;20033;-70
2022/11/03 14:53:08;;;;;;;17.33;5.07;;;26.50;66.80;;;;;;5066891;28;20044;-70
2022/11/03 14:55:35;;;;;;;9.98;4.13;;;26.60;67.50;;;;;;5064554;28;20030;-69
2022/11/03 14:58:01;;;;;;;10.73;4.10;;;26.70;67.60;;;;;;5063004;28;20028;-72
2022/11/03 15:00:28;;;;;;;18.90;4.82;;;26.80;67.70;;;;;;5068060;28;20126;-72
2022/11/03 15:02:54;;;;;;;9.15;3.47;;;26.80;67.60;;;;;;5066706;28;20031;-71
2022/11/03 15:08:06;;;;;;;13.98;5.03;;;26.80;67.80;;;;;;5068792;28;20031;-75
2022/11/03 15:10:32;;;;;;;14.48;3.70;;;26.80;67.00;;;;;;5071880;28;20037;-73
2022/11/03 15:12:59;;;;;;;23.10;4.85;;;26.80;66.90;;;;;;5076412;28;20117;-74
2022/11/03 15:15:25;;;;;;;9.82;4.03;;;26.80;66.90;;;;;;5073123;28;20028;-77
2022/11/03 15:17:52;;;;;;;12.30;3.45;;;26.70;66.90;;;;;;5075203;28;20463;-77
2022/11/03 15:20:21;;;;;;;11.40;4.80;;;26.70;67.10;;;;;;5068278;28;20041;-71
2022/11/03 15:22:50;;;;;;;8.35;3.05;;;26.70;67.30;;;;;;5071120;28;20380;-74
2022/11/03 15:25:20;;;;;;;10.70;2.83;;;26.60;67.30;;;;;;5070208;28;20063;-73
2022/11/03 15:27:52;;;;;;;14.07;4.07;;;26.60;67.30;;;;;;5070046;28;20021;-76
2022/11/03 15:30:34;;;;;;;13.65;4.97;;;26.60;67.40;;;;;;5066892;28;20029;-76
2022/11/03 15:33:22;;;;;;;9.07;4.70;;;26.60;67.40;;;;;;5065636;28;20102;-73
2022/11/03 15:35:57;;;;;;;12.98;5.82;;;26.50;67.30;;;;;;5060467;28;20040;-77
2022/11/03 15:38:24;;;;;;;14.18;5.50;;;26.50;67.50;;;;;;5076161;28;20498;-75
2022/11/03 15:41:14;;;;;;;16.63;5.03;;;26.50;67.50;;;;;;5069917;28;20024;-73
2022/11/03 15:43:50;;;;;;;11.27;4.78;;;26.40;67.60;;;;;;5068496;28;20020;-71
2022/11/03 15:46:17;;;;;;;8.98;3.30;;;26.40;67.90;;;;;;5071678;28;20019;-76
2022/11/03 15:48:48;;;;;;;14.27;4.03;;;26.30;67.80;;;;;;5068589;28;20013;-73
2022/11/03 15:51:14;;;;;;;15.18;4.75;;;26.30;67.90;;;;;;5073897;28;20122;-73
2022/11/03 15:53:42;;;;;;;7.22;3.42;;;26.30;67.90;;;;;;5065573;28;20028;-78
2022/11/03 15:56:09;;;;;;;9.25;3.25;;;26.30;68.10;;;;;;5069215;28;20108;-72
2022/11/03 15:58:36;;;;;;;9.60;3.20;;;26.30;68.00;;;;;;5066945;28;20077;-74
2022/11/03 16:01:03;;;;;;;12.43;3.75;;;26.40;68.00;;;;;;5072301;28;20099;-79
2022/11/03 16:03:38;;;;;;;16.80;4.05;;;26.30;67.90;;;;;;5066540;28;20069;-83
2022/11/03 16:06:05;;;;;;;10.07;2.80;;;26.40;67.90;;;;;;5080274;28;20057;-82
2022/11/03 16:08:31;;;;;;;15.30;4.32;;;26.30;67.80;;;;;;5068515;28;20078;-73
2022/11/03 16:11:07;;;;;;;21.55;3.65;;;26.30;67.90;;;;;;5068746;28;20446;-73
2022/11/03 16:13:34;;;;;;;13.77;3.78;;;26.20;68.00;;;;;;5072094;28;20352;-76
2022/11/03 16:16:01;;;;;;;14.80;3.88;;;26.10;68.20;;;;;;5072550;28;20070;-75
2022/11/03 16:18:28;;;;;;;14.25;5.30;;;26.00;68.30;;;;;;5067757;28;20119;-72
2022/11/03 16:21:40;;;;;;;17.13;5.13;;;26.00;68.40;;;;;;5070419;28;20613;-73
2022/11/03 16:27:39;;;;;;;15.57;5.68;;;25.80;68.70;;;;;;5066383;28;20123;-72
2022/11/03 16:30:06;;;;;;;12.02;3.72;;;25.80;68.90;;;;;;5068961;28;20119;-78
2022/11/03 16:32:33;;;;;;;10.68;4.40;;;25.70;68.90;;;;;;5063427;28;20040;-74
2022/11/03 16:34:59;;;;;;;15.50;4.32;;;25.70;68.90;;;;;;5067047;28;20016;-73
2022/11/03 16:37:29;;;;;;;10.07;3.20;;;25.70;69.00;;;;;;5072289;28;20082;-74
2022/11/03 16:40:01;;;;;;;12.98;3.40;;;25.70;69.00;;;;;;5063677;28;20009;-72
2022/11/03 16:42:28;;;;;;;14.85;3.83;;;25.60;69.10;;;;;;5072383;28;20028;-71
2022/11/03 16:44:54;;;;;;;8.80;3.70;;;25.50;69.30;;;;;;5070154;28;20234;-73
2022/11/03 16:47:41;;;;;;;6.25;2.92;;;25.50;69.40;;;;;;5067800;28;20092;-71
2022/11/03 16:50:08;;;;;;;14.90;4.68;;;25.50;69.40;;;;;;5060279;28;20033;-71
2022/11/03 16:52:34;;;;;;;12.23;4.60;;;25.40;69.50;;;;;;5065697;28;20082;-71
2022/11/03 16:55:01;;;;;;;13.38;4.47;;;25.40;69.70;;;;;;5061891;28;20016;-71